createdAt,value
2022-09-12T00:01:14.111Z,69.35
2022-09-12T00:03:41.881Z,69.37
2022-09-12T00:06:23.132Z,69.64
2022-09-12T00:08:51.773Z,69.74
2022-09-12T00:11:19.447Z,69.58
2022-09-12T00:13:47.012Z,69.55
2022-09-12T00:16:24.269Z,69.83
2022-09-12T00:18:52.444Z,70.05
2022-09-12T00:21:19.794Z,69.89
2022-09-12T00:23:48.786Z,69.80
2022-09-12T00:26:18.167Z,69.65
2022-09-12T00:28:48.824Z,69.44
2022-09-12T00:31:21.610Z,69.64
2022-09-12T00:33:48.533Z,69.67
2022-09-12T00:36:18.986Z,69.57
2022-09-12T00:38:47.487Z,69.61
2022-09-12T00:41:24.164Z,69.62
2022-09-12T00:43:55.676Z,69.70
2022-09-12T00:46:26.963Z,69.49
2022-09-12T00:49:06.049Z,69.72
2022-09-12T00:51:36.253Z,69.49
2022-09-12T00:54:11.124Z,69.80
2022-09-12T00:56:42.478Z,69.85
2022-09-12T00:59:15.993Z,69.75
2022-09-12T01:01:45.230Z,69.77
2022-09-12T01:04:14.341Z,69.75
2022-09-12T01:06:44.146Z,69.43
2022-09-12T01:09:17.316Z,69.61
2022-09-12T01:11:47.574Z,69.63
2022-09-12T01:14:16.743Z,69.83
2022-09-12T01:16:45.424Z,69.69
2022-09-12T01:19:37.760Z,69.47
2022-09-12T01:22:19.545Z,69.42
2022-09-12T01:25:44.230Z,69.67
2022-09-12T01:28:48.063Z,70.04
2022-09-12T01:31:34.616Z,70.27
2022-09-12T01:34:19.701Z,70.19
2022-09-12T01:36:57.740Z,69.98
2022-09-12T01:39:38.786Z,70.15
2022-09-12T01:42:19.658Z,70.22
2022-09-12T01:45:04.873Z,70.43
2022-09-12T01:47:45.309Z,70.18
2022-09-12T01:50:22.714Z,70.20
2022-09-12T01:52:54.003Z,70.38
2022-09-12T01:55:42.303Z,70.57
2022-09-12T01:58:16.701Z,70.57
2022-09-12T02:01:09.311Z,70.69
2022-09-12T02:03:52.767Z,70.71
2022-09-12T02:06:36.036Z,70.68
2022-09-12T02:09:21.097Z,70.87
2022-09-12T02:11:50.710Z,71.08
2022-09-12T02:14:39.584Z,70.96
2022-09-12T02:17:14.268Z,71.02
2022-09-12T02:19:46.941Z,71.30
2022-09-12T02:22:17.973Z,71.64
2022-09-12T02:24:50.944Z,71.85
2022-09-12T02:27:25.192Z,71.39
2022-09-12T02:29:52.443Z,71.34
2022-09-12T02:32:51.793Z,71.14
2022-09-12T02:35:39.905Z,71.46
2022-09-12T02:38:13.123Z,71.02
2022-09-12T02:40:41.188Z,70.92
2022-09-12T02:43:09.190Z,71.43
2022-09-12T02:45:37.717Z,70.95
2022-09-12T02:48:28.460Z,71.19
2022-09-12T02:50:55.977Z,71.62
2022-09-12T02:53:23.724Z,71.58
2022-09-12T02:55:51.819Z,71.54
2022-09-12T02:58:24.951Z,71.66
2022-09-12T03:01:18.151Z,71.90
2022-09-12T03:04:29.109Z,72.09
2022-09-12T03:07:07.499Z,72.11
2022-09-12T03:09:46.786Z,72.01
2022-09-12T03:12:35.846Z,71.86
2022-09-12T03:15:08.892Z,71.78
2022-09-12T03:17:54.078Z,71.60
2022-09-12T03:20:49.995Z,71.97
2022-09-12T03:23:48.545Z,72.01
2022-09-12T03:26:40.925Z,71.99
2022-09-12T03:29:09.431Z,72.07
2022-09-12T03:31:36.195Z,71.95
2022-09-12T03:34:03.300Z,71.77
2022-09-12T03:36:30.757Z,71.95
2022-09-12T03:38:57.591Z,71.73
2022-09-12T03:41:24.547Z,71.81
2022-09-12T03:43:51.620Z,71.78
2022-09-12T03:46:19.157Z,71.92
2022-09-12T03:48:46.845Z,71.91
2022-09-12T03:51:13.895Z,71.86
2022-09-12T03:53:40.738Z,72.10
2022-09-12T03:56:13.802Z,71.97
2022-09-12T03:58:41.904Z,71.90
2022-09-12T04:01:14.692Z,72.00
2022-09-12T04:03:47.770Z,71.86
2022-09-12T04:06:17.300Z,71.57
2022-09-12T04:08:45.883Z,71.51
2022-09-12T04:11:15.255Z,71.64
2022-09-12T04:13:44.115Z,72.00
2022-09-12T04:16:13.036Z,71.89
2022-09-12T04:18:40.296Z,71.89
2022-09-12T04:21:32.963Z,72.05
2022-09-12T04:23:59.742Z,71.97
2022-09-12T04:26:26.558Z,72.14
2022-09-12T04:28:55.041Z,71.90
2022-09-12T04:31:23.034Z,71.83
2022-09-12T04:33:58.060Z,71.78
2022-09-12T04:36:25.983Z,71.86
2022-09-12T04:38:54.186Z,71.94
2022-09-12T04:41:23.995Z,71.91
2022-09-12T04:43:58.679Z,72.03
2022-09-12T04:46:26.381Z,71.89
2022-09-12T04:48:56.980Z,71.79
2022-09-12T04:51:28.798Z,71.91
2022-09-12T04:53:59.034Z,71.95
2022-09-12T04:56:27.279Z,71.91
2022-09-12T04:58:54.044Z,71.62
2022-09-12T05:01:23.353Z,71.74
2022-09-12T05:03:51.434Z,71.94
2022-09-12T05:06:21.474Z,72.04
2022-09-12T05:08:48.320Z,72.06
2022-09-12T05:11:22.711Z,72.16
2022-09-12T05:13:52.170Z,72.18
2022-09-12T05:16:20.827Z,72.23
2022-09-12T05:18:49.198Z,72.09
2022-09-12T05:21:19.060Z,72.15
2022-09-12T05:23:48.259Z,71.99
2022-09-12T05:26:16.652Z,71.96
2022-09-12T05:28:44.119Z,72.00
2022-09-12T05:31:20.277Z,72.23
2022-09-12T05:33:50.425Z,72.30
2022-09-12T05:36:19.793Z,72.31
2022-09-12T05:38:47.246Z,72.26
2022-09-12T05:41:24.692Z,72.21
2022-09-12T05:43:54.165Z,72.27
2022-09-12T05:46:23.391Z,72.22
2022-09-12T05:48:55.731Z,72.07
2022-09-12T05:51:26.800Z,71.99
2022-09-12T05:53:57.057Z,71.97
2022-09-12T05:56:26.460Z,72.12
2022-09-12T05:58:57.640Z,72.30
2022-09-12T06:01:26.225Z,72.25
2022-09-12T06:03:55.392Z,72.36
2022-09-12T06:06:25.851Z,72.41
2022-09-12T06:08:56.111Z,72.39
2022-09-12T06:11:26.672Z,72.62
2022-09-12T06:13:54.230Z,72.30
2022-09-12T06:16:24.288Z,72.29
2022-09-12T06:18:53.948Z,72.06
2022-09-12T06:21:22.935Z,72.13
2022-09-12T06:23:50.400Z,72.10
2022-09-12T06:26:25.163Z,72.42
2022-09-12T06:28:54.235Z,72.36
2022-09-12T06:31:25.284Z,72.24
2022-09-12T06:33:53.787Z,72.45
2022-09-12T06:36:26.424Z,72.34
2022-09-12T06:38:58.874Z,72.25
2022-09-12T06:41:26.959Z,72.14
2022-09-12T06:43:55.186Z,72.15
2022-09-12T06:46:22.777Z,72.11
2022-09-12T06:48:50.981Z,72.23
2022-09-12T06:51:20.367Z,72.30
2022-09-12T06:53:48.771Z,72.55
2022-09-12T06:56:17.134Z,72.38
2022-09-12T06:58:44.234Z,72.72
2022-09-12T07:01:26.636Z,72.57
2022-09-12T07:03:56.055Z,72.67
2022-09-12T07:06:25.977Z,72.57
2022-09-12T07:08:52.774Z,72.60
2022-09-12T07:11:23.145Z,72.91
2022-09-12T07:13:58.413Z,72.99
2022-09-12T07:16:25.778Z,72.67
2022-09-12T07:18:58.085Z,73.10
2022-09-12T07:21:25.227Z,72.69
2022-09-12T07:23:52.327Z,73.08
2022-09-12T07:26:19.472Z,72.79
2022-09-12T07:28:50.712Z,72.73
2022-09-12T07:31:19.461Z,72.69
2022-09-12T07:33:48.185Z,72.82
2022-09-12T07:36:20.054Z,72.91
2022-09-12T07:38:47.221Z,72.94
2022-09-12T07:41:18.853Z,72.89
2022-09-12T07:43:46.049Z,73.00
2022-09-12T07:46:14.591Z,72.77
2022-09-12T07:48:41.398Z,72.64
2022-09-12T07:51:10.984Z,72.73
2022-09-12T07:53:43.601Z,72.63
2022-09-12T07:56:11.631Z,72.62
2022-09-12T07:58:40.637Z,72.84
2022-09-12T08:01:08.506Z,72.77
2022-09-12T08:03:36.301Z,72.85
2022-09-12T08:06:07.613Z,72.52
2022-09-12T08:08:34.708Z,72.59
2022-09-12T08:11:03.636Z,72.73
2022-09-12T08:13:30.687Z,72.29
2022-09-12T08:16:00.186Z,72.35
2022-09-12T08:18:29.066Z,72.38
2022-09-12T08:21:08.608Z,72.47
2022-09-12T08:23:35.462Z,72.50
2022-09-12T08:26:06.301Z,72.69
2022-09-12T08:28:35.725Z,72.32
2022-09-12T08:31:08.553Z,72.17
2022-09-12T08:33:35.903Z,72.42
2022-09-12T08:36:14.968Z,71.96
2022-09-12T08:38:46.567Z,71.56
2022-09-12T08:41:19.240Z,71.93
2022-09-12T08:44:09.522Z,72.08
2022-09-12T08:46:52.268Z,71.61
2022-09-12T08:49:28.560Z,71.28
2022-09-12T08:51:58.848Z,71.02
2022-09-12T08:54:29.296Z,70.20
2022-09-12T08:57:02.266Z,70.55
2022-09-12T08:59:41.482Z,69.69
2022-09-12T09:02:39.707Z,68.97
2022-09-12T09:05:06.478Z,67.67
2022-09-12T09:08:01.031Z,67.78
2022-09-12T09:10:27.798Z,68.10
2022-09-12T09:13:14.609Z,68.46
2022-09-12T09:15:57.966Z,67.94
2022-09-12T09:18:30.308Z,67.74
2022-09-12T09:21:03.581Z,67.35
2022-09-12T09:23:37.097Z,67.00
2022-09-12T09:26:22.586Z,66.27
2022-09-12T09:28:54.231Z,66.34
2022-09-12T09:31:24.167Z,67.24
2022-09-12T09:33:55.428Z,67.26
2022-09-12T09:36:40.735Z,65.97
2022-09-12T09:39:25.131Z,65.07
2022-09-12T09:42:09.524Z,66.09
2022-09-12T09:44:36.974Z,65.55
2022-09-12T09:47:03.863Z,65.05
2022-09-12T09:49:33.718Z,65.46
2022-09-12T09:52:02.024Z,64.35
2022-09-12T09:54:41.043Z,64.56
2022-09-12T09:57:36.054Z,64.73
2022-09-12T10:00:32.004Z,64.77
2022-09-12T10:03:03.263Z,64.08
2022-09-12T10:05:33.283Z,64.00
2022-09-12T10:08:00.479Z,63.05
2022-09-12T10:10:27.347Z,62.46
2022-09-12T10:13:24.242Z,63.10
2022-09-12T10:16:00.732Z,63.80
2022-09-12T10:18:54.982Z,63.08
2022-09-12T10:21:35.925Z,63.66
2022-09-12T10:24:14.610Z,63.47
2022-09-12T10:26:43.855Z,62.85
2022-09-12T10:29:22.187Z,62.95
2022-09-12T10:31:56.098Z,63.74
2022-09-12T10:34:32.000Z,63.45
2022-09-12T10:37:03.217Z,63.15
2022-09-12T10:39:31.382Z,62.88
2022-09-12T10:41:58.190Z,63.06
2022-09-12T10:44:28.319Z,62.34
2022-09-12T10:46:56.000Z,62.07
2022-09-12T10:49:30.260Z,62.30
2022-09-12T10:52:17.090Z,61.62
2022-09-12T10:54:43.875Z,61.10
2022-09-12T10:57:31.289Z,61.28
2022-09-12T11:00:16.941Z,61.11
2022-09-12T11:03:02.485Z,60.91
2022-09-12T11:05:53.419Z,60.34
2022-09-12T11:08:44.899Z,59.63
2022-09-12T11:11:17.375Z,60.16
2022-09-12T11:14:01.407Z,61.30
2022-09-12T11:16:49.430Z,61.36
2022-09-12T11:19:33.747Z,60.59
2022-09-12T11:22:21.818Z,59.75
2022-09-12T11:25:07.204Z,59.81
2022-09-12T11:27:40.030Z,59.88
2022-09-12T11:30:14.182Z,59.74
2022-09-12T11:33:12.106Z,59.43
2022-09-12T11:35:55.203Z,59.06
2022-09-12T11:38:57.758Z,59.50
2022-09-12T11:41:33.905Z,59.81
2022-09-12T11:44:14.324Z,59.37
2022-09-12T11:46:43.777Z,58.69
2022-09-12T11:49:13.619Z,58.60
2022-09-12T11:51:52.807Z,58.17
2022-09-12T11:54:32.769Z,57.66
2022-09-12T11:57:23.497Z,57.61
2022-09-12T11:59:58.580Z,58.47
2022-09-12T12:02:42.676Z,58.90
2022-09-12T12:05:40.268Z,59.37
2022-09-12T12:08:08.236Z,57.85
2022-09-12T12:10:44.208Z,59.28
2022-09-12T12:13:22.968Z,58.54
2022-09-12T12:16:01.155Z,59.19
2022-09-12T12:18:33.147Z,58.26
2022-09-12T12:21:37.809Z,56.50
2022-09-12T12:24:07.592Z,56.92
2022-09-12T12:26:43.416Z,56.90
2022-09-12T12:29:22.486Z,56.21
2022-09-12T12:32:04.134Z,56.54
2022-09-12T12:34:42.064Z,55.43
2022-09-12T12:37:25.584Z,53.94
2022-09-12T12:40:09.231Z,52.20
2022-09-12T12:42:38.993Z,52.92
2022-09-12T12:45:18.277Z,53.12
2022-09-12T12:47:52.098Z,51.49
2022-09-12T12:50:21.849Z,51.39
2022-09-12T12:53:02.034Z,53.25
2022-09-12T12:55:53.494Z,53.40
2022-09-12T12:58:37.613Z,53.22
2022-09-12T13:01:15.349Z,53.97
2022-09-12T13:03:46.334Z,53.93
2022-09-12T13:06:34.257Z,53.83
2022-09-12T13:09:09.454Z,53.55
2022-09-12T13:11:39.536Z,53.24
2022-09-12T13:14:27.754Z,52.55
2022-09-12T13:17:00.878Z,51.99
2022-09-12T13:19:34.253Z,53.18
2022-09-12T13:22:06.742Z,53.43
2022-09-12T13:24:34.523Z,53.75
2022-09-12T13:27:02.376Z,54.19
2022-09-12T13:29:29.466Z,53.78
2022-09-12T13:32:01.748Z,51.32
2022-09-12T13:34:35.733Z,49.60
2022-09-12T13:37:23.616Z,49.08
2022-09-12T13:40:14.876Z,48.76
2022-09-12T13:42:45.286Z,49.37
2022-09-12T13:45:23.521Z,50.39
2022-09-12T13:48:14.207Z,48.98
2022-09-12T13:50:49.762Z,47.96
2022-09-12T13:53:20.285Z,49.00
2022-09-12T13:55:50.259Z,49.25
2022-09-12T13:58:28.292Z,49.17
2022-09-12T14:01:12.723Z,49.30
2022-09-12T14:04:00.991Z,48.59
2022-09-12T14:06:28.725Z,49.11
2022-09-12T14:08:57.648Z,49.16
2022-09-12T14:11:27.824Z,47.75
2022-09-12T14:13:56.226Z,48.88
2022-09-12T14:16:27.437Z,49.62
2022-09-12T14:18:54.535Z,48.34
2022-09-12T14:21:36.019Z,49.60
2022-09-12T14:24:07.180Z,48.07
2022-09-12T14:26:36.578Z,48.49
2022-09-12T14:29:06.767Z,48.56
2022-09-12T14:31:37.266Z,48.35
2022-09-12T14:34:12.089Z,47.86
2022-09-12T14:36:47.984Z,48.23
2022-09-12T14:39:38.809Z,48.13
2022-09-12T14:42:27.943Z,47.55
2022-09-12T14:45:01.647Z,48.01
2022-09-12T14:47:38.581Z,47.34
2022-09-12T14:50:14.714Z,47.19
2022-09-12T14:52:41.545Z,47.23
2022-09-12T14:55:20.731Z,47.17
2022-09-12T14:57:48.332Z,47.24
2022-09-12T15:00:21.222Z,47.94
2022-09-12T15:02:50.637Z,47.30
2022-09-12T15:05:24.644Z,47.72
2022-09-12T15:07:54.971Z,48.15
2022-09-12T15:10:34.149Z,47.69
2022-09-12T15:13:09.918Z,47.62
2022-09-12T15:15:41.638Z,47.99
2022-09-12T15:18:08.860Z,48.26
2022-09-12T15:20:41.319Z,48.46
2022-09-12T15:23:14.540Z,49.20
2022-09-12T15:25:41.271Z,49.32
2022-09-12T15:28:20.242Z,49.27
2022-09-12T15:30:50.132Z,48.66
2022-09-12T15:33:18.843Z,48.92
2022-09-12T15:35:46.027Z,48.68
2022-09-12T15:38:34.326Z,48.80
2022-09-12T15:41:01.051Z,48.31
2022-09-12T15:43:28.229Z,48.58
2022-09-12T15:45:56.210Z,48.61
2022-09-12T15:48:23.051Z,48.88
2022-09-12T15:50:49.800Z,48.95
2022-09-12T15:53:17.553Z,48.52
2022-09-12T15:55:44.828Z,48.75
2022-09-12T15:58:12.204Z,48.64
2022-09-12T16:00:38.921Z,48.41
2022-09-12T16:03:06.287Z,48.41
2022-09-12T16:05:33.125Z,48.41
2022-09-12T16:07:59.996Z,48.85
2022-09-12T16:10:30.414Z,48.97
2022-09-12T16:12:58.054Z,49.35
2022-09-12T16:15:26.457Z,49.49
2022-09-12T16:17:53.891Z,49.52
2022-09-12T16:20:22.102Z,49.64
2022-09-12T16:22:48.985Z,49.92
2022-09-12T16:25:16.070Z,50.24
2022-09-12T16:27:43.365Z,50.54
2022-09-12T16:30:11.038Z,50.53
2022-09-12T16:32:37.866Z,50.55
2022-09-12T16:35:05.279Z,50.77
2022-09-12T16:37:34.606Z,50.62
2022-09-12T16:40:02.700Z,50.36
2022-09-12T16:42:29.974Z,50.47
2022-09-12T16:44:56.766Z,50.71
2022-09-12T16:47:23.568Z,50.91
2022-09-12T16:49:51.435Z,50.83
2022-09-12T16:52:19.311Z,50.91
2022-09-12T16:54:46.169Z,50.50
2022-09-12T16:57:13.143Z,50.53
2022-09-12T16:59:40.020Z,50.24
2022-09-12T17:02:11.373Z,50.34
2022-09-12T17:04:38.054Z,50.43
2022-09-12T17:07:07.714Z,49.95
2022-09-12T17:09:35.782Z,50.46
2022-09-12T17:12:02.881Z,50.24
2022-09-12T17:14:29.617Z,50.27
2022-09-12T17:16:57.367Z,50.44
2022-09-12T17:19:33.189Z,50.74
2022-09-12T17:22:00.135Z,51.20
2022-09-12T17:24:26.969Z,51.18
2022-09-12T17:26:54.205Z,51.40
2022-09-12T17:29:21.542Z,50.92
2022-09-12T17:31:49.041Z,51.29
2022-09-12T17:34:16.489Z,51.33
2022-09-12T17:36:45.174Z,51.22
2022-09-12T17:39:13.732Z,51.07
2022-09-12T17:41:45.952Z,51.53
2022-09-12T17:44:15.213Z,51.33
2022-09-12T17:46:42.726Z,51.43
2022-09-12T17:49:14.943Z,51.39
2022-09-12T17:51:42.272Z,51.48
2022-09-12T17:54:15.865Z,51.74
2022-09-12T17:56:44.900Z,51.54
2022-09-12T17:59:16.329Z,51.67
2022-09-12T18:02:02.327Z,51.62
2022-09-12T18:04:29.365Z,52.35
2022-09-12T18:06:57.842Z,52.12
2022-09-12T18:09:28.306Z,52.52
2022-09-12T18:11:59.435Z,53.05
2022-09-12T18:14:28.852Z,52.24
2022-09-12T18:16:57.318Z,52.57
2022-09-12T18:19:24.843Z,52.67
2022-09-12T18:21:51.566Z,52.28
2022-09-12T18:24:18.396Z,53.09
2022-09-12T18:26:45.182Z,53.29
2022-09-12T18:29:13.575Z,53.58
2022-09-12T18:31:40.387Z,53.25
2022-09-12T18:34:12.823Z,52.93
2022-09-12T18:36:48.471Z,52.84
2022-09-12T18:39:16.867Z,52.60
2022-09-12T18:41:45.089Z,52.39
2022-09-12T18:44:12.001Z,53.04
2022-09-12T18:46:39.009Z,53.27
2022-09-12T18:49:08.317Z,53.27
2022-09-12T18:51:37.059Z,53.61
2022-09-12T18:54:06.969Z,54.22
2022-09-12T18:56:36.117Z,55.09
2022-09-12T18:59:05.657Z,55.13
2022-09-12T19:01:35.732Z,54.92
2022-09-12T19:04:05.932Z,54.88
2022-09-12T19:06:37.152Z,55.38
2022-09-12T19:09:08.091Z,55.96
2022-09-12T19:11:37.329Z,55.98
2022-09-12T19:14:05.744Z,55.52
2022-09-12T19:16:33.887Z,55.77
2022-09-12T19:19:00.742Z,55.49
2022-09-12T19:21:30.302Z,55.65
2022-09-12T19:23:59.680Z,55.76
2022-09-12T19:26:27.396Z,55.07
2022-09-12T19:28:55.441Z,55.62
2022-09-12T19:31:23.551Z,56.00
2022-09-12T19:33:50.985Z,56.44
2022-09-12T19:36:44.294Z,56.65
2022-09-12T19:39:08.811Z,56.77
2022-09-12T19:41:36.215Z,56.84
2022-09-12T19:44:04.455Z,57.08
2022-09-12T19:46:31.363Z,56.62
2022-09-12T19:48:58.135Z,56.85
2022-09-12T19:51:25.622Z,57.44
2022-09-12T19:53:53.369Z,57.85
2022-09-12T19:56:20.277Z,57.86
2022-09-12T19:58:53.493Z,57.86
2022-09-12T20:01:30.553Z,58.11
2022-09-12T20:03:58.510Z,57.85
2022-09-12T20:06:26.311Z,58.00
2022-09-12T20:08:53.273Z,57.90
2022-09-12T20:11:22.129Z,58.24
2022-09-12T20:13:49.266Z,58.22
2022-09-12T20:16:23.094Z,58.29
2022-09-12T20:18:58.759Z,58.05
2022-09-12T20:21:32.070Z,57.82
2022-09-12T20:24:06.183Z,58.05
2022-09-12T20:26:33.508Z,58.24
2022-09-12T20:29:00.668Z,58.24
2022-09-12T20:31:27.586Z,58.13
2022-09-12T20:33:54.974Z,58.78
2022-09-12T20:36:22.367Z,58.99
2022-09-12T20:38:51.463Z,58.57
2022-09-12T20:41:19.702Z,58.65
2022-09-12T20:43:53.143Z,58.95
2022-09-12T20:46:22.134Z,59.52
2022-09-12T20:48:50.739Z,59.48
2022-09-12T20:51:18.326Z,59.61
2022-09-12T20:53:45.118Z,59.46
2022-09-12T20:56:11.848Z,59.42
2022-09-12T20:58:43.582Z,59.12
2022-09-12T21:01:13.106Z,59.33
2022-09-12T21:03:41.406Z,60.06
2022-09-12T21:06:09.724Z,60.05
2022-09-12T21:08:37.635Z,59.89
2022-09-12T21:11:05.918Z,60.01
2022-09-12T21:13:33.090Z,59.48
2022-09-12T21:16:03.845Z,59.44
2022-09-12T21:18:32.154Z,60.11
2022-09-12T21:20:59.161Z,60.37
2022-09-12T21:23:27.309Z,59.94
2022-09-12T21:25:54.415Z,60.12
2022-09-12T21:28:21.891Z,59.97
2022-09-12T21:30:49.927Z,60.57
2022-09-12T21:33:18.394Z,60.33
2022-09-12T21:35:45.371Z,60.87
2022-09-12T21:38:12.180Z,60.68
2022-09-12T21:40:44.435Z,60.76
2022-09-12T21:43:12.990Z,61.07
2022-09-12T21:45:40.278Z,60.86
2022-09-12T21:48:06.972Z,60.63
2022-09-12T21:50:33.635Z,60.79
2022-09-12T21:53:00.484Z,60.63
2022-09-12T21:55:27.953Z,60.33
2022-09-12T21:57:55.295Z,60.37
2022-09-12T22:00:22.779Z,59.53
2022-09-12T22:02:49.729Z,59.40
2022-09-12T22:05:17.512Z,59.55
2022-09-12T22:07:44.435Z,60.14
2022-09-12T22:10:11.393Z,60.15
2022-09-12T22:12:40.778Z,59.86
2022-09-12T22:15:36.422Z,60.23
2022-09-12T22:17:57.213Z,59.90
2022-09-12T22:20:23.998Z,59.76
2022-09-12T22:23:09.637Z,59.78
2022-09-12T22:25:36.520Z,60.02
2022-09-12T22:28:03.399Z,60.32
2022-09-12T22:30:30.338Z,60.12
2022-09-12T22:32:57.097Z,60.36
2022-09-12T22:35:23.847Z,60.17
2022-09-12T22:37:50.590Z,60.29
2022-09-12T22:40:17.501Z,60.67
2022-09-12T22:42:44.211Z,60.79
2022-09-12T22:45:11.525Z,60.83
2022-09-12T22:47:38.358Z,61.30
2022-09-12T22:50:05.552Z,61.19
2022-09-12T22:52:32.406Z,61.10
2022-09-12T22:54:59.315Z,61.10
2022-09-12T22:57:26.078Z,61.17
2022-09-12T22:59:52.804Z,61.30
2022-09-12T23:02:19.707Z,61.50
2022-09-12T23:04:47.207Z,61.34
2022-09-12T23:07:14.642Z,61.50
2022-09-12T23:09:41.411Z,61.39
2022-09-12T23:12:08.130Z,61.50
2022-09-12T23:14:34.883Z,61.92
2022-09-12T23:17:01.689Z,61.91
2022-09-12T23:19:28.412Z,62.01
2022-09-12T23:21:55.119Z,61.85
2022-09-12T23:24:22.068Z,61.66
2022-09-12T23:26:49.482Z,61.92
2022-09-12T23:29:16.761Z,61.83
2022-09-12T23:31:43.975Z,61.89
2022-09-12T23:34:10.837Z,62.23
2022-09-12T23:36:37.582Z,61.79
2022-09-12T23:39:05.224Z,61.95
2022-09-12T23:41:32.013Z,62.15
2022-09-12T23:43:58.817Z,61.83
2022-09-12T23:46:25.670Z,62.10
2022-09-12T23:48:53.592Z,62.00
2022-09-12T23:51:22.056Z,62.37
2022-09-12T23:53:50.278Z,62.49
2022-09-12T23:56:17.122Z,62.58
2022-09-12T23:58:43.952Z,62.68
